KCAD/CAD METAR and TAF weather

Enter ICAO airport designator
Station Type Date Time Source
KCAD METAR 2018/12/12 05:35 UTC NOAA

KCAD 120535Z AUTO 19004KT 10SM OVC023 M02/M04 A3000 RMK AO2 T10281043


Station Type Date Time Source
KCAD Decoded METAR 2018/12/12 05:35 UTC NOAA

Cadillac / Wexford County, MI, United States (KCAD) 44-17N 085-25W
Dec 12, 2018 - 12:35 AM EST / 2018.12.12 0535 UTC
Wind: from the S (190 degrees) at 5 MPH (4 KT):0
Visibility: 10 mile(s):0
Sky conditions: overcast
Temperature: 27.0 F (-2.8 C)
Windchill: 21 F (-6 C):1
Dew Point: 24.3 F (-4.3 C)
Relative Humidity: 89%
Pressure (altimeter): 30 in. Hg (1015 hPa)
ob: KCAD 120535Z AUTO 19004KT 10SM OVC023 M02/M04 A3000 RMK AO2 T10281043
cycle: 5

Station Type Date Time Source
KCAD TAF UTC NOAA

Error!


Example: see airport list